sensor_id;sensor_type;location;lat;lon;timestamp;P1;durP1;ratioP1;P2;durP2;ratioP2
40588;SDS011;26297;49.450;6.640;2022-08-21T04:01:37;3.03;;;1.70;;
40588;SDS011;26297;49.450;6.640;2022-08-21T04:04:41;4.00;;;2.20;;
40588;SDS011;26297;49.450;6.640;2022-08-21T04:07:43;5.80;;;2.10;;
40588;SDS011;26297;49.450;6.640;2022-08-21T04:10:47;5.20;;;1.83;;
40588;SDS011;26297;49.450;6.640;2022-08-21T04:13:53;4.00;;;2.03;;
40588;SDS011;26297;49.450;6.640;2022-08-21T04:16:56;3.33;;;1.73;;
40588;SDS011;26297;49.450;6.640;2022-08-21T04:19:59;2.83;;;1.98;;
40588;SDS011;26297;49.450;6.640;2022-08-21T04:23:02;4.57;;;2.28;;
40588;SDS011;26297;49.450;6.640;2022-08-21T04:26:06;4.80;;;1.92;;
40588;SDS011;26297;49.450;6.640;2022-08-21T04:29:09;7.50;;;2.20;;
40588;SDS011;26297;49.450;6.640;2022-08-21T04:32:12;5.60;;;2.25;;
40588;SDS011;26297;49.450;6.640;2022-08-21T04:35:16;4.53;;;2.13;;
40588;SDS011;26297;49.450;6.640;2022-08-21T04:38:21;4.82;;;2.00;;
40588;SDS011;26297;49.450;6.640;2022-08-21T04:41:25;5.32;;;2.15;;
40588;SDS011;26297;49.450;6.640;2022-08-21T04:44:28;2.97;;;2.03;;
40588;SDS011;26297;49.450;6.640;2022-08-21T04:47:31;3.72;;;2.17;;
40588;SDS011;26297;49.450;6.640;2022-08-21T04:50:38;5.00;;;2.28;;
40588;SDS011;26297;49.450;6.640;2022-08-21T04:53:55;3.97;;;2.08;;
40588;SDS011;26297;49.450;6.640;2022-08-21T04:57:04;4.53;;;2.50;;
40588;SDS011;26297;49.450;6.640;2022-08-21T05:00:10;3.75;;;2.30;;
40588;SDS011;26297;49.450;6.640;2022-08-21T05:03:16;4.88;;;2.03;;
40588;SDS011;26297;49.450;6.640;2022-08-21T05:06:19;2.00;;;1.60;;
40588;SDS011;26297;49.450;6.640;2022-08-21T05:09:23;5.97;;;2.25;;
40588;SDS011;26297;49.450;6.640;2022-08-21T05:12:27;4.13;;;2.00;;
40588;SDS011;26297;49.450;6.640;2022-08-21T05:15:31;4.97;;;2.13;;
40588;SDS011;26297;49.450;6.640;2022-08-21T05:18:34;3.88;;;2.03;;
40588;SDS011;26297;49.450;6.640;2022-08-21T05:21:38;4.50;;;2.35;;
40588;SDS011;26297;49.450;6.640;2022-08-21T05:24:44;4.32;;;1.58;;
40588;SDS011;26297;49.450;6.640;2022-08-21T05:27:47;3.85;;;1.92;;
40588;SDS011;26297;49.450;6.640;2022-08-21T05:30:50;5.47;;;1.90;;
40588;SDS011;26297;49.450;6.640;2022-08-21T05:33:53;2.03;;;1.58;;
40588;SDS011;26297;49.450;6.640;2022-08-21T05:36:57;5.45;;;2.10;;
40588;SDS011;26297;49.450;6.640;2022-08-21T05:40:00;3.38;;;1.90;;
40588;SDS011;26297;49.450;6.640;2022-08-21T05:43:04;2.40;;;2.08;;
40588;SDS011;26297;49.450;6.640;2022-08-21T05:46:08;5.07;;;2.72;;
40588;SDS011;26297;49.450;6.640;2022-08-21T05:49:11;4.15;;;2.10;;
40588;SDS011;26297;49.450;6.640;2022-08-21T05:52:18;4.85;;;2.30;;
40588;SDS011;26297;49.450;6.640;2022-08-21T05:55:22;3.58;;;1.75;;
40588;SDS011;26297;49.450;6.640;2022-08-21T05:58:25;5.15;;;2.35;;
40588;SDS011;26297;49.450;6.640;2022-08-21T06:01:28;3.92;;;1.92;;
40588;SDS011;26297;49.450;6.640;2022-08-21T06:04:34;3.25;;;1.98;;
40588;SDS011;26297;49.450;6.640;2022-08-21T06:07:39;3.88;;;2.30;;
40588;SDS011;26297;49.450;6.640;2022-08-21T06:10:42;2.67;;;2.05;;
40588;SDS011;26297;49.450;6.640;2022-08-21T06:13:45;4.20;;;2.05;;
40588;SDS011;26297;49.450;6.640;2022-08-21T06:16:49;3.75;;;1.75;;
40588;SDS011;26297;49.450;6.640;2022-08-21T06:19:52;5.22;;;2.42;;
40588;SDS011;26297;49.450;6.640;2022-08-21T06:22:56;4.72;;;2.38;;
40588;SDS011;26297;49.450;6.640;2022-08-21T06:25:59;6.97;;;2.28;;
40588;SDS011;26297;49.450;6.640;2022-08-21T06:29:07;6.07;;;2.35;;
40588;SDS011;26297;49.450;6.640;2022-08-21T06:32:13;2.53;;;1.90;;
40588;SDS011;26297;49.450;6.640;2022-08-21T06:35:16;6.05;;;2.17;;
40588;SDS011;26297;49.450;6.640;2022-08-21T06:38:19;4.07;;;1.88;;
40588;SDS011;26297;49.450;6.640;2022-08-21T06:41:22;6.80;;;2.38;;
40588;SDS011;26297;49.450;6.640;2022-08-21T06:44:25;2.95;;;1.88;;
40588;SDS011;26297;49.450;6.640;2022-08-21T06:47:29;3.75;;;1.90;;
40588;SDS011;26297;49.450;6.640;2022-08-21T06:50:32;5.25;;;1.95;;
40588;SDS011;26297;49.450;6.640;2022-08-21T06:53:36;4.57;;;2.03;;
40588;SDS011;26297;49.450;6.640;2022-08-21T06:56:39;3.03;;;2.15;;
40588;SDS011;26297;49.450;6.640;2022-08-21T06:59:42;4.15;;;2.20;;
40588;SDS011;26297;49.450;6.640;2022-08-21T07:02:45;4.50;;;2.17;;
40588;SDS011;26297;49.450;6.640;2022-08-21T07:05:48;4.80;;;1.98;;
40588;SDS011;26297;49.450;6.640;2022-08-21T07:08:52;5.28;;;2.45;;
40588;SDS011;26297;49.450;6.640;2022-08-21T07:11:55;3.33;;;2.00;;
40588;SDS011;26297;49.450;6.640;2022-08-21T07:14:59;4.72;;;2.38;;
40588;SDS011;26297;49.450;6.640;2022-08-21T07:18:03;5.10;;;2.38;;
40588;SDS011;26297;49.450;6.640;2022-08-21T07:21:06;4.25;;;2.20;;
40588;SDS011;26297;49.450;6.640;2022-08-21T07:24:10;3.40;;;2.35;;
40588;SDS011;26297;49.450;6.640;2022-08-21T07:27:13;3.92;;;2.13;;
40588;SDS011;26297;49.450;6.640;2022-08-21T07:30:16;3.83;;;1.98;;
40588;SDS011;26297;49.450;6.640;2022-08-21T07:33:19;4.35;;;2.10;;
40588;SDS011;26297;49.450;6.640;2022-08-21T07:36:23;2.47;;;1.90;;
40588;SDS011;26297;49.450;6.640;2022-08-21T07:39:26;2.53;;;1.98;;
40588;SDS011;26297;49.450;6.640;2022-08-21T07:42:29;2.67;;;1.80;;
40588;SDS011;26297;49.450;6.640;2022-08-21T07:45:32;3.92;;;2.13;;
40588;SDS011;26297;49.450;6.640;2022-08-21T07:48:35;4.03;;;2.00;;
40588;SDS011;26297;49.450;6.640;2022-08-21T07:51:39;6.63;;;2.50;;
40588;SDS011;26297;49.450;6.640;2022-08-21T07:54:43;2.97;;;2.13;;
40588;SDS011;26297;49.450;6.640;2022-08-21T07:57:46;2.05;;;1.80;;
40588;SDS011;26297;49.450;6.640;2022-08-21T08:00:50;5.18;;;1.98;;
40588;SDS011;26297;49.450;6.640;2022-08-21T08:03:53;6.30;;;2.10;;
40588;SDS011;26297;49.450;6.640;2022-08-21T08:06:57;5.85;;;2.10;;
40588;SDS011;26297;49.450;6.640;2022-08-21T08:10:01;5.00;;;1.88;;
40588;SDS011;26297;49.450;6.640;2022-08-21T08:13:10;4.03;;;1.90;;
40588;SDS011;26297;49.450;6.640;2022-08-21T08:16:14;4.10;;;1.90;;
40588;SDS011;26297;49.450;6.640;2022-08-21T08:19:17;2.20;;;1.60;;
40588;SDS011;26297;49.450;6.640;2022-08-21T08:22:21;5.38;;;2.10;;
40588;SDS011;26297;49.450;6.640;2022-08-21T08:25:31;4.35;;;1.77;;
40588;SDS011;26297;49.450;6.640;2022-08-21T08:28:34;3.17;;;2.10;;
40588;SDS011;26297;49.450;6.640;2022-08-21T08:31:39;7.60;;;1.60;;
40588;SDS011;26297;49.450;6.640;2022-08-21T08:34:42;3.03;;;1.65;;
40588;SDS011;26297;49.450;6.640;2022-08-21T08:37:45;2.30;;;1.52;;
40588;SDS011;26297;49.450;6.640;2022-08-21T08:44:04;4.35;;;2.05;;
40588;SDS011;26297;49.450;6.640;2022-08-21T08:47:15;3.42;;;2.15;;
40588;SDS011;26297;49.450;6.640;2022-08-21T08:50:28;3.80;;;1.92;;
40588;SDS011;26297;49.450;6.640;2022-08-21T08:53:48;2.55;;;1.67;;
40588;SDS011;26297;49.450;6.640;2022-08-21T08:56:54;4.53;;;2.00;;
40588;SDS011;26297;49.450;6.640;2022-08-21T08:59:59;4.03;;;1.38;;
40588;SDS011;26297;49.450;6.640;2022-08-21T09:03:06;4.68;;;1.35;;
40588;SDS011;26297;49.450;6.640;2022-08-21T09:09:38;2.80;;;1.15;;
40588;SDS011;26297;49.450;6.640;2022-08-21T09:27:10;3.25;;;1.45;;
40588;SDS011;26297;49.450;6.640;2022-08-21T09:30:16;2.28;;;1.63;;
40588;SDS011;26297;49.450;6.640;2022-08-21T09:33:29;3.08;;;1.40;;
40588;SDS011;26297;49.450;6.640;2022-08-21T09:39:51;2.40;;;1.33;;
40588;SDS011;26297;49.450;6.640;2022-08-21T09:42:55;3.80;;;1.80;;
40588;SDS011;26297;49.450;6.640;2022-08-21T09:49:06;4.10;;;2.22;;
40588;SDS011;26297;49.450;6.640;2022-08-21T09:52:15;4.55;;;1.98;;
40588;SDS011;26297;49.450;6.640;2022-08-21T09:55:47;4.28;;;1.20;;
40588;SDS011;26297;49.450;6.640;2022-08-21T09:59:18;3.22;;;1.75;;
40588;SDS011;26297;49.450;6.640;2022-08-21T10:02:29;2.78;;;1.40;;
40588;SDS011;26297;49.450;6.640;2022-08-21T10:05:36;7.28;;;2.22;;
40588;SDS011;26297;49.450;6.640;2022-08-21T10:08:46;3.00;;;1.65;;
40588;SDS011;26297;49.450;6.640;2022-08-21T10:11:50;5.63;;;1.92;;
40588;SDS011;26297;49.450;6.640;2022-08-21T10:15:20;2.78;;;1.45;;
40588;SDS011;26297;49.450;6.640;2022-08-21T10:18:38;4.40;;;1.77;;
40588;SDS011;26297;49.450;6.640;2022-08-21T10:25:55;5.03;;;1.85;;
40588;SDS011;26297;49.450;6.640;2022-08-21T10:40:08;2.70;;;1.20;;
40588;SDS011;26297;49.450;6.640;2022-08-21T10:47:47;1.85;;;1.00;;
40588;SDS011;26297;49.450;6.640;2022-08-21T10:51:06;2.28;;;1.23;;
40588;SDS011;26297;49.450;6.640;2022-08-21T10:58:40;2.63;;;1.23;;
40588;SDS011;26297;49.450;6.640;2022-08-21T11:06:27;5.43;;;1.70;;
40588;SDS011;26297;49.450;6.640;2022-08-21T11:09:25;4.80;;;1.42;;
40588;SDS011;26297;49.450;6.640;2022-08-21T11:12:40;3.92;;;1.20;;
40588;SDS011;26297;49.450;6.640;2022-08-21T11:15:54;4.05;;;1.25;;
40588;SDS011;26297;49.450;6.640;2022-08-21T11:22:54;5.55;;;1.58;;
40588;SDS011;26297;49.450;6.640;2022-08-21T11:26:17;3.40;;;1.38;;
40588;SDS011;26297;49.450;6.640;2022-08-21T11:29:39;4.57;;;1.70;;
40588;SDS011;26297;49.450;6.640;2022-08-21T11:36:48;4.38;;;1.15;;
40588;SDS011;26297;49.450;6.640;2022-08-21T11:51:08;2.90;;;1.30;;
40588;SDS011;26297;49.450;6.640;2022-08-21T11:54:37;2.95;;;0.93;;
40588;SDS011;26297;49.450;6.640;2022-08-21T11:57:49;3.83;;;1.40;;
40588;SDS011;26297;49.450;6.640;2022-08-21T12:01:14;4.13;;;1.20;;
40588;SDS011;26297;49.450;6.640;2022-08-21T12:04:30;4.65;;;1.38;;
40588;SDS011;26297;49.450;6.640;2022-08-21T12:07:44;1.75;;;1.15;;
40588;SDS011;26297;49.450;6.640;2022-08-21T12:10:58;2.03;;;1.13;;
40588;SDS011;26297;49.450;6.640;2022-08-21T12:17:08;2.00;;;0.95;;
40588;SDS011;26297;49.450;6.640;2022-08-21T12:23:28;3.15;;;1.10;;
40588;SDS011;26297;49.450;6.640;2022-08-21T12:26:35;2.05;;;0.90;;
40588;SDS011;26297;49.450;6.640;2022-08-21T12:29:55;3.88;;;1.08;;
40588;SDS011;26297;49.450;6.640;2022-08-21T12:33:05;3.05;;;1.30;;
40588;SDS011;26297;49.450;6.640;2022-08-21T12:39:31;4.15;;;1.20;;
40588;SDS011;26297;49.450;6.640;2022-08-21T12:42:41;1.40;;;0.70;;
40588;SDS011;26297;49.450;6.640;2022-08-21T12:45:49;2.85;;;1.05;;
40588;SDS011;26297;49.450;6.640;2022-08-21T12:49:06;2.53;;;1.35;;
40588;SDS011;26297;49.450;6.640;2022-08-21T12:52:17;4.00;;;1.10;;
40588;SDS011;26297;49.450;6.640;2022-08-21T12:55:28;2.15;;;1.08;;
40588;SDS011;26297;49.450;6.640;2022-08-21T12:58:34;4.43;;;1.25;;
40588;SDS011;26297;49.450;6.640;2022-08-21T13:01:38;4.15;;;1.33;;
40588;SDS011;26297;49.450;6.640;2022-08-21T13:04:48;3.22;;;1.10;;
40588;SDS011;26297;49.450;6.640;2022-08-21T13:07:52;3.80;;;1.25;;
40588;SDS011;26297;49.450;6.640;2022-08-21T13:11:05;3.35;;;1.08;;
40588;SDS011;26297;49.450;6.640;2022-08-21T13:17:36;2.03;;;0.90;;
40588;SDS011;26297;49.450;6.640;2022-08-21T13:20:42;3.75;;;1.30;;
40588;SDS011;26297;49.450;6.640;2022-08-21T13:23:46;2.58;;;1.00;;
40588;SDS011;26297;49.450;6.640;2022-08-21T13:26:50;1.08;;;0.85;;
40588;SDS011;26297;49.450;6.640;2022-08-21T13:30:21;1.80;;;1.08;;
40588;SDS011;26297;49.450;6.640;2022-08-21T13:33:33;3.60;;;1.20;;
40588;SDS011;26297;49.450;6.640;2022-08-21T13:36:41;4.45;;;1.10;;
40588;SDS011;26297;49.450;6.640;2022-08-21T13:40:00;4.53;;;1.38;;
40588;SDS011;26297;49.450;6.640;2022-08-21T13:47:12;2.35;;;0.80;;
40588;SDS011;26297;49.450;6.640;2022-08-21T13:50:18;3.17;;;0.90;;
40588;SDS011;26297;49.450;6.640;2022-08-21T13:57:14;2.90;;;0.90;;
40588;SDS011;26297;49.450;6.640;2022-08-21T14:00:44;2.10;;;1.10;;
40588;SDS011;26297;49.450;6.640;2022-08-21T14:04:04;3.38;;;1.40;;
40588;SDS011;26297;49.450;6.640;2022-08-21T14:07:24;1.73;;;0.90;;
40588;SDS011;26297;49.450;6.640;2022-08-21T14:10:36;2.55;;;1.20;;
40588;SDS011;26297;49.450;6.640;2022-08-21T14:13:46;2.60;;;1.30;;
40588;SDS011;26297;49.450;6.640;2022-08-21T14:16:59;2.42;;;0.95;;
40588;SDS011;26297;49.450;6.640;2022-08-21T14:20:06;2.67;;;1.20;;
40588;SDS011;26297;49.450;6.640;2022-08-21T14:23:22;2.47;;;1.05;;
40588;SDS011;26297;49.450;6.640;2022-08-21T14:26:33;1.90;;;0.77;;
40588;SDS011;26297;49.450;6.640;2022-08-21T14:29:42;0.88;;;0.70;;
40588;SDS011;26297;49.450;6.640;2022-08-21T14:32:46;3.58;;;1.00;;
40588;SDS011;26297;49.450;6.640;2022-08-21T14:36:06;2.65;;;1.02;;
40588;SDS011;26297;49.450;6.640;2022-08-21T14:39:41;2.42;;;1.02;;
40588;SDS011;26297;49.450;6.640;2022-08-21T14:42:58;2.75;;;1.27;;
40588;SDS011;26297;49.450;6.640;2022-08-21T14:46:26;2.00;;;0.88;;
40588;SDS011;26297;49.450;6.640;2022-08-21T14:49:35;4.07;;;1.17;;
40588;SDS011;26297;49.450;6.640;2022-08-21T14:52:43;1.98;;;0.95;;
40588;SDS011;26297;49.450;6.640;2022-08-21T14:55:49;2.80;;;1.02;;
40588;SDS011;26297;49.450;6.640;2022-08-21T14:59:08;3.15;;;0.98;;
40588;SDS011;26297;49.450;6.640;2022-08-21T15:02:12;3.17;;;1.63;;
40588;SDS011;26297;49.450;6.640;2022-08-21T15:05:15;1.23;;;1.15;;
40588;SDS011;26297;49.450;6.640;2022-08-21T15:08:20;1.30;;;1.02;;
40588;SDS011;26297;49.450;6.640;2022-08-21T15:11:23;1.38;;;1.17;;
40588;SDS011;26297;49.450;6.640;2022-08-21T15:14:29;1.80;;;1.00;;
40588;SDS011;26297;49.450;6.640;2022-08-21T15:17:35;2.92;;;1.15;;
40588;SDS011;26297;49.450;6.640;2022-08-21T15:20:46;1.45;;;0.98;;
40588;SDS011;26297;49.450;6.640;2022-08-21T15:23:52;1.50;;;0.82;;
40588;SDS011;26297;49.450;6.640;2022-08-21T15:26:58;3.10;;;0.93;;
40588;SDS011;26297;49.450;6.640;2022-08-21T15:30:03;4.10;;;1.23;;
40588;SDS011;26297;49.450;6.640;2022-08-21T15:33:07;2.97;;;1.30;;
40588;SDS011;26297;49.450;6.640;2022-08-21T15:36:11;1.85;;;1.20;;
40588;SDS011;26297;49.450;6.640;2022-08-21T15:39:14;2.33;;;1.10;;
40588;SDS011;26297;49.450;6.640;2022-08-21T15:42:17;2.40;;;1.23;;
40588;SDS011;26297;49.450;6.640;2022-08-21T15:45:21;1.33;;;0.70;;
40588;SDS011;26297;49.450;6.640;2022-08-21T15:48:24;1.05;;;0.75;;
40588;SDS011;26297;49.450;6.640;2022-08-21T15:51:28;1.08;;;0.68;;
40588;SDS011;26297;49.450;6.640;2022-08-21T15:54:31;3.53;;;0.93;;
40588;SDS011;26297;49.450;6.640;2022-08-21T15:57:34;1.55;;;0.95;;
40588;SDS011;26297;49.450;6.640;2022-08-21T16:00:38;4.88;;;1.10;;
40588;SDS011;26297;49.450;6.640;2022-08-21T16:03:42;1.75;;;0.98;;
40588;SDS011;26297;49.450;6.640;2022-08-21T16:06:48;3.33;;;1.08;;
40588;SDS011;26297;49.450;6.640;2022-08-21T16:10:21;1.73;;;0.77;;
40588;SDS011;26297;49.450;6.640;2022-08-21T16:13:25;2.65;;;0.98;;
40588;SDS011;26297;49.450;6.640;2022-08-21T16:16:31;2.47;;;0.65;;
40588;SDS011;26297;49.450;6.640;2022-08-21T16:19:44;4.22;;;1.15;;
40588;SDS011;26297;49.450;6.640;2022-08-21T16:22:47;1.77;;;0.90;;
40588;SDS011;26297;49.450;6.640;2022-08-21T16:25:50;2.03;;;0.98;;
40588;SDS011;26297;49.450;6.640;2022-08-21T16:28:58;1.52;;;0.88;;
40588;SDS011;26297;49.450;6.640;2022-08-21T16:32:02;2.67;;;1.00;;
40588;SDS011;26297;49.450;6.640;2022-08-21T16:35:18;1.85;;;1.23;;
40588;SDS011;26297;49.450;6.640;2022-08-21T16:38:23;1.88;;;0.98;;
40588;SDS011;26297;49.450;6.640;2022-08-21T16:41:31;1.90;;;0.80;;
40588;SDS011;26297;49.450;6.640;2022-08-21T16:44:36;1.85;;;0.80;;
40588;SDS011;26297;49.450;6.640;2022-08-21T16:47:48;4.25;;;1.15;;
40588;SDS011;26297;49.450;6.640;2022-08-21T16:54:35;1.73;;;0.73;;
40588;SDS011;26297;49.450;6.640;2022-08-21T16:58:20;4.53;;;1.52;;
40588;SDS011;26297;49.450;6.640;2022-08-21T17:01:27;1.27;;;0.95;;
40588;SDS011;26297;49.450;6.640;2022-08-21T17:04:35;3.10;;;0.75;;
40588;SDS011;26297;49.450;6.640;2022-08-21T17:07:38;1.77;;;1.00;;
40588;SDS011;26297;49.450;6.640;2022-08-21T17:10:42;1.17;;;0.93;;
40588;SDS011;26297;49.450;6.640;2022-08-21T17:13:48;2.03;;;0.93;;
40588;SDS011;26297;49.450;6.640;2022-08-21T17:16:53;1.77;;;1.05;;
40588;SDS011;26297;49.450;6.640;2022-08-21T17:19:58;1.95;;;1.02;;
40588;SDS011;26297;49.450;6.640;2022-08-21T17:23:01;2.13;;;1.08;;
40588;SDS011;26297;49.450;6.640;2022-08-21T17:26:04;0.65;;;0.65;;
40588;SDS011;26297;49.450;6.640;2022-08-21T17:29:07;1.63;;;0.70;;
40588;SDS011;26297;49.450;6.640;2022-08-21T17:32:14;3.38;;;1.13;;
40588;SDS011;26297;49.450;6.640;2022-08-21T17:35:20;0.95;;;0.85;;
40588;SDS011;26297;49.450;6.640;2022-08-21T17:38:23;3.53;;;1.02;;
40588;SDS011;26297;49.450;6.640;2022-08-21T17:41:27;2.00;;;1.10;;
40588;SDS011;26297;49.450;6.640;2022-08-21T17:44:30;1.67;;;1.30;;
40588;SDS011;26297;49.450;6.640;2022-08-21T17:47:34;1.95;;;0.85;;
40588;SDS011;26297;49.450;6.640;2022-08-21T17:50:37;1.65;;;1.02;;
40588;SDS011;26297;49.450;6.640;2022-08-21T17:53:40;2.30;;;1.13;;
40588;SDS011;26297;49.450;6.640;2022-08-21T17:56:44;1.73;;;1.15;;
40588;SDS011;26297;49.450;6.640;2022-08-21T17:59:47;1.48;;;1.10;;
40588;SDS011;26297;49.450;6.640;2022-08-21T18:03:02;2.50;;;1.52;;
40588;SDS011;26297;49.450;6.640;2022-08-21T18:06:14;2.17;;;1.55;;
40588;SDS011;26297;49.450;6.640;2022-08-21T18:09:18;1.70;;;1.20;;
40588;SDS011;26297;49.450;6.640;2022-08-21T18:12:24;2.03;;;1.15;;
40588;SDS011;26297;49.450;6.640;2022-08-21T18:15:27;0.95;;;0.90;;
40588;SDS011;26297;49.450;6.640;2022-08-21T18:18:31;1.50;;;1.20;;
40588;SDS011;26297;49.450;6.640;2022-08-21T18:21:41;2.67;;;0.98;;
40588;SDS011;26297;49.450;6.640;2022-08-21T18:24:44;1.50;;;0.80;;
40588;SDS011;26297;49.450;6.640;2022-08-21T18:27:48;3.28;;;1.20;;
40588;SDS011;26297;49.450;6.640;2022-08-21T18:31:01;2.72;;;0.82;;
40588;SDS011;26297;49.450;6.640;2022-08-21T18:34:30;3.13;;;1.40;;
40588;SDS011;26297;49.450;6.640;2022-08-21T18:37:35;2.33;;;1.33;;
40588;SDS011;26297;49.450;6.640;2022-08-21T18:40:39;2.53;;;1.08;;
40588;SDS011;26297;49.450;6.640;2022-08-21T18:43:47;2.28;;;0.98;;
40588;SDS011;26297;49.450;6.640;2022-08-21T18:46:51;3.05;;;1.08;;
40588;SDS011;26297;49.450;6.640;2022-08-21T18:49:59;3.17;;;1.10;;
40588;SDS011;26297;49.450;6.640;2022-08-21T18:53:03;2.00;;;1.10;;
40588;SDS011;26297;49.450;6.640;2022-08-21T18:56:07;2.28;;;1.23;;
40588;SDS011;26297;49.450;6.640;2022-08-21T18:59:13;2.35;;;1.20;;
40588;SDS011;26297;49.450;6.640;2022-08-21T19:02:20;1.90;;;1.00;;
40588;SDS011;26297;49.450;6.640;2022-08-21T19:05:47;2.22;;;1.13;;
40588;SDS011;26297;49.450;6.640;2022-08-21T19:08:51;1.52;;;1.08;;
40588;SDS011;26297;49.450;6.640;2022-08-21T19:11:54;4.68;;;1.58;;
40588;SDS011;26297;49.450;6.640;2022-08-21T19:14:58;3.47;;;1.30;;
40588;SDS011;26297;49.450;6.640;2022-08-21T19:18:01;3.25;;;1.10;;
40588;SDS011;26297;49.450;6.640;2022-08-21T19:21:14;2.58;;;1.20;;
40588;SDS011;26297;49.450;6.640;2022-08-21T19:24:21;2.75;;;1.10;;
40588;SDS011;26297;49.450;6.640;2022-08-21T19:27:25;2.55;;;1.15;;
40588;SDS011;26297;49.450;6.640;2022-08-21T19:30:29;1.15;;;1.00;;
40588;SDS011;26297;49.450;6.640;2022-08-21T19:33:36;1.55;;;0.75;;
40588;SDS011;26297;49.450;6.640;2022-08-21T19:36:55;2.25;;;1.33;;
40588;SDS011;26297;49.450;6.640;2022-08-21T19:40:08;3.42;;;1.13;;
40588;SDS011;26297;49.450;6.640;2022-08-21T19:47:08;2.83;;;1.40;;
40588;SDS011;26297;49.450;6.640;2022-08-21T19:50:15;1.13;;;1.02;;
40588;SDS011;26297;49.450;6.640;2022-08-21T19:53:21;2.47;;;1.25;;
40588;SDS011;26297;49.450;6.640;2022-08-21T19:56:27;3.88;;;1.50;;
40588;SDS011;26297;49.450;6.640;2022-08-21T19:59:38;3.25;;;1.20;;
40588;SDS011;26297;49.450;6.640;2022-08-21T20:02:46;3.30;;;1.02;;
40588;SDS011;26297;49.450;6.640;2022-08-21T20:09:41;1.77;;;1.20;;
40588;SDS011;26297;49.450;6.640;2022-08-21T20:12:46;1.83;;;1.35;;
40588;SDS011;26297;49.450;6.640;2022-08-21T20:15:52;1.77;;;1.02;;
40588;SDS011;26297;49.450;6.640;2022-08-21T20:19:00;1.83;;;1.17;;
40588;SDS011;26297;49.450;6.640;2022-08-21T20:22:07;2.42;;;1.20;;
40588;SDS011;26297;49.450;6.640;2022-08-21T20:25:13;2.95;;;0.90;;
40588;SDS011;26297;49.450;6.640;2022-08-21T20:28:17;1.65;;;0.90;;
40588;SDS011;26297;49.450;6.640;2022-08-21T20:31:21;4.43;;;1.05;;
40588;SDS011;26297;49.450;6.640;2022-08-21T20:34:25;3.60;;;1.05;;
40588;SDS011;26297;49.450;6.640;2022-08-21T20:37:29;1.85;;;1.00;;
40588;SDS011;26297;49.450;6.640;2022-08-21T20:40:33;3.50;;;1.17;;
40588;SDS011;26297;49.450;6.640;2022-08-21T20:43:39;1.75;;;1.20;;
40588;SDS011;26297;49.450;6.640;2022-08-21T20:46:43;1.63;;;0.90;;
40588;SDS011;26297;49.450;6.640;2022-08-21T20:49:47;2.80;;;1.08;;
40588;SDS011;26297;49.450;6.640;2022-08-21T20:52:59;2.97;;;1.10;;
40588;SDS011;26297;49.450;6.640;2022-08-21T20:56:16;3.10;;;1.35;;
40588;SDS011;26297;49.450;6.640;2022-08-21T21:06:03;2.83;;;1.33;;
40588;SDS011;26297;49.450;6.640;2022-08-21T21:09:13;6.32;;;1.05;;
40588;SDS011;26297;49.450;6.640;2022-08-21T21:12:26;2.22;;;1.05;;
